createdAt,value
2019-05-12T00:00:34.952Z,3.22
2019-05-12T00:03:04.597Z,3.35
2019-05-12T00:05:34.220Z,3.10
2019-05-12T00:08:03.937Z,3.05
2019-05-12T00:10:33.692Z,3.60
2019-05-12T00:13:03.332Z,3.08
2019-05-12T00:15:32.957Z,3.50
2019-05-12T00:18:02.584Z,3.95
2019-05-12T00:20:32.223Z,3.85
2019-05-12T00:23:03.477Z,3.27
2019-05-12T00:25:33.116Z,3.65
2019-05-12T00:28:02.803Z,3.60
2019-05-12T00:30:39.803Z,3.95
2019-05-12T00:33:09.729Z,3.70
2019-05-12T00:35:39.980Z,3.80
2019-05-12T00:38:09.624Z,3.40
2019-05-12T00:40:39.778Z,3.50
2019-05-12T00:43:10.526Z,4.17
2019-05-12T00:45:41.197Z,4.10
2019-05-12T00:48:10.826Z,4.03
2019-05-12T00:50:40.518Z,4.12
2019-05-12T00:53:10.246Z,4.00
2019-05-12T00:55:39.936Z,3.58
2019-05-12T00:58:10.155Z,4.12
2019-05-12T01:00:41.117Z,4.37
2019-05-12T01:03:11.459Z,4.67
2019-05-12T01:05:41.078Z,3.98
2019-05-12T01:08:10.697Z,4.90
2019-05-12T01:10:40.407Z,4.28
2019-05-12T01:13:10.099Z,4.97
2019-05-12T01:15:39.914Z,4.62
2019-05-12T01:18:09.875Z,5.62
2019-05-12T01:20:39.697Z,4.85
2019-05-12T01:23:09.330Z,5.40
2019-05-12T01:25:39.918Z,5.03
2019-05-12T01:28:10.167Z,5.40
2019-05-12T01:30:39.814Z,5.28
2019-05-12T01:33:09.506Z,5.12
2019-05-12T01:35:39.574Z,4.78
2019-05-12T01:38:09.323Z,5.42
2019-05-12T01:40:39.775Z,5.37
2019-05-12T01:43:09.829Z,6.55
2019-05-12T01:45:39.531Z,6.30
2019-05-12T01:48:09.752Z,6.78
2019-05-12T01:50:39.544Z,6.17
2019-05-12T01:53:09.193Z,6.45
2019-05-12T01:55:39.343Z,6.05
2019-05-12T01:58:09.578Z,6.95
2019-05-12T02:00:39.464Z,6.95
2019-05-12T02:03:09.751Z,6.87
2019-05-12T02:05:41.325Z,6.17
2019-05-12T02:08:12.593Z,7.08
2019-05-12T02:10:42.235Z,6.28
2019-05-12T02:13:11.858Z,6.92
2019-05-12T02:15:41.945Z,7.92
2019-05-12T02:18:11.578Z,7.65
2019-05-12T02:20:41.224Z,7.60
2019-05-12T02:23:10.927Z,8.08
2019-05-12T02:25:40.575Z,8.00
2019-05-12T02:28:10.197Z,7.65
2019-05-12T02:30:41.318Z,8.65
2019-05-12T02:33:11.192Z,8.33
2019-05-12T02:35:40.844Z,7.80
2019-05-12T02:38:10.469Z,8.65
2019-05-12T02:40:40.119Z,8.60
2019-05-12T02:43:09.813Z,9.75
2019-05-12T02:45:39.477Z,8.55
2019-05-12T02:48:09.098Z,9.35
2019-05-12T02:50:38.938Z,9.13
2019-05-12T02:53:08.666Z,9.80
2019-05-12T02:55:39.398Z,8.63
2019-05-12T02:58:14.991Z,9.55
2019-05-12T03:03:17.267Z,9.68
2019-05-12T03:05:48.303Z,10.03
2019-05-12T03:08:21.468Z,9.35
2019-05-12T03:10:54.844Z,9.58
2019-05-12T03:13:25.452Z,10.53
2019-05-12T03:15:55.245Z,10.08
2019-05-12T03:18:25.452Z,10.48
2019-05-12T03:20:55.359Z,9.80
2019-05-12T03:23:25.130Z,11.03
2019-05-12T03:25:54.972Z,11.60
2019-05-12T03:28:25.709Z,11.93
2019-05-12T03:30:57.448Z,11.75
2019-05-12T03:33:34.340Z,11.20
2019-05-12T03:36:00.676Z,11.38
2019-05-12T03:38:29.844Z,11.43
2019-05-12T03:40:59.500Z,10.70
2019-05-12T03:43:29.119Z,11.30
2019-05-12T03:45:58.790Z,11.05
2019-05-12T03:48:28.420Z,10.63
2019-05-12T03:50:58.103Z,10.03
2019-05-12T03:53:27.772Z,10.58
2019-05-12T03:55:57.397Z,11.12
2019-05-12T03:58:27.032Z,9.85
2019-05-12T04:00:56.732Z,10.98
2019-05-12T04:03:26.382Z,10.65
2019-05-12T04:05:56.013Z,11.15
2019-05-12T04:08:25.900Z,11.25
2019-05-12T04:10:55.526Z,11.25
2019-05-12T04:13:26.577Z,11.78
2019-05-12T04:15:56.507Z,11.12
2019-05-12T04:18:26.133Z,10.82
2019-05-12T04:20:55.785Z,11.18
2019-05-12T04:23:25.554Z,10.15
2019-05-12T04:26:06.978Z,10.48
2019-05-12T04:28:26.894Z,10.78
2019-05-12T04:30:56.549Z,11.30
2019-05-12T04:33:26.171Z,11.08
2019-05-12T04:35:55.906Z,10.88
2019-05-12T04:38:25.531Z,11.05
2019-05-12T04:40:56.230Z,11.50
2019-05-12T04:43:25.862Z,12.68
2019-05-12T04:45:55.510Z,10.30
2019-05-12T04:48:25.992Z,10.55
2019-05-12T04:50:55.848Z,11.30
2019-05-12T04:53:25.617Z,11.03
2019-05-12T04:56:07.365Z,11.30
2019-05-12T04:58:26.839Z,11.40
2019-05-12T05:00:56.925Z,11.08
2019-05-12T05:03:26.588Z,11.33
2019-05-12T05:05:56.298Z,11.55
2019-05-12T05:08:25.946Z,11.78
2019-05-12T05:10:55.632Z,11.43
2019-05-12T05:13:25.785Z,11.03
2019-05-12T05:15:55.486Z,10.30
2019-05-12T05:18:25.159Z,10.25
2019-05-12T05:20:54.848Z,13.83
2019-05-12T05:23:24.543Z,26.45
2019-05-12T05:25:54.260Z,19.37
2019-05-12T05:28:23.881Z,14.70
2019-05-12T05:30:53.645Z,12.58
2019-05-12T05:33:23.959Z,10.90
2019-05-12T05:35:54.362Z,11.40
2019-05-12T05:38:24.104Z,10.70
2019-05-12T05:40:54.209Z,11.03
2019-05-12T05:43:24.289Z,10.05
2019-05-12T05:46:02.080Z,10.25
2019-05-12T05:48:25.463Z,9.68
2019-05-12T05:50:55.223Z,10.58
2019-05-12T05:53:24.863Z,10.28
2019-05-12T05:55:56.263Z,10.35
2019-05-12T05:58:26.336Z,10.03
2019-05-12T06:01:03.004Z,8.75
2019-05-12T06:03:28.066Z,9.18
2019-05-12T06:06:04.811Z,10.40
2019-05-12T06:08:29.465Z,9.68
2019-05-12T06:10:59.168Z,9.90
2019-05-12T06:13:31.958Z,9.83
2019-05-12T06:16:00.168Z,9.95
2019-05-12T06:18:29.791Z,9.70
2019-05-12T06:20:59.437Z,9.58
2019-05-12T06:23:34.027Z,10.63
2019-05-12T06:26:00.431Z,9.10
2019-05-12T06:28:31.088Z,10.13
2019-05-12T06:31:01.569Z,9.00
2019-05-12T06:33:34.004Z,8.83
2019-05-12T06:36:03.761Z,9.20
2019-05-12T06:38:37.162Z,8.78
2019-05-12T06:41:06.839Z,8.35
2019-05-12T06:43:39.579Z,9.40
2019-05-12T06:46:11.752Z,9.05
2019-05-12T06:48:42.268Z,9.33
2019-05-12T06:51:15.350Z,7.87
2019-05-12T06:53:44.194Z,8.43
2019-05-12T06:56:15.425Z,8.93
2019-05-12T06:58:45.939Z,10.90
2019-05-12T07:01:19.363Z,11.43
2019-05-12T07:03:47.069Z,9.70
2019-05-12T07:06:19.787Z,9.83
2019-05-12T07:09:01.279Z,9.43
2019-05-12T07:11:19.440Z,8.25
2019-05-12T07:14:01.257Z,8.28
2019-05-12T07:16:26.770Z,7.83
2019-05-12T07:18:54.166Z,9.33
2019-05-12T07:21:26.539Z,8.60
2019-05-12T07:23:54.882Z,8.58
2019-05-12T07:26:24.599Z,8.33
2019-05-12T07:28:54.509Z,8.80
2019-05-12T07:31:24.224Z,8.60
2019-05-12T07:33:54.293Z,8.53
2019-05-12T07:36:24.734Z,8.83
2019-05-12T07:39:04.067Z,8.13
2019-05-12T07:41:30.799Z,7.47
2019-05-12T07:44:03.599Z,8.55
2019-05-12T07:46:34.267Z,8.08
2019-05-12T07:49:04.162Z,8.38
2019-05-12T07:51:36.339Z,7.75
2019-05-12T07:54:05.300Z,7.30
2019-05-12T07:56:35.774Z,6.60
2019-05-12T07:59:05.881Z,7.08
2019-05-12T08:01:44.749Z,7.50
2019-05-12T08:04:07.214Z,6.20
2019-05-12T08:06:41.634Z,6.92
2019-05-12T08:09:08.824Z,6.45
2019-05-12T08:11:39.000Z,6.53
2019-05-12T08:14:13.678Z,6.30
2019-05-12T08:16:40.180Z,5.62
2019-05-12T08:19:14.930Z,5.97
2019-05-12T08:21:46.553Z,5.33
2019-05-12T08:24:14.326Z,5.35
2019-05-12T08:26:44.027Z,5.03
2019-05-12T08:29:17.063Z,5.47
2019-05-12T08:31:45.190Z,5.15
2019-05-12T08:34:14.899Z,5.87
2019-05-12T08:36:52.956Z,5.28
2019-05-12T08:39:21.053Z,5.08
2019-05-12T08:41:47.432Z,4.55
2019-05-12T08:44:17.583Z,4.37
2019-05-12T08:46:51.806Z,4.87
2019-05-12T08:49:18.887Z,4.47
2019-05-12T08:51:49.480Z,4.47
2019-05-12T08:54:19.882Z,4.12
2019-05-12T08:56:51.040Z,4.12
2019-05-12T08:59:26.505Z,4.97
2019-05-12T09:01:54.074Z,4.53
2019-05-12T09:04:24.765Z,4.80
2019-05-12T09:06:56.395Z,3.80
2019-05-12T09:09:26.643Z,4.53
2019-05-12T09:11:56.352Z,4.40
2019-05-12T09:14:26.242Z,3.98
2019-05-12T09:17:05.647Z,4.25
2019-05-12T09:19:28.106Z,4.45
2019-05-12T09:21:57.978Z,4.40
2019-05-12T09:24:27.721Z,4.53
2019-05-12T09:26:59.024Z,3.90
2019-05-12T09:29:28.821Z,4.12
2019-05-12T09:31:59.122Z,4.00
2019-05-12T09:34:29.921Z,3.90
2019-05-12T09:37:01.068Z,3.75
2019-05-12T09:39:33.979Z,3.47
2019-05-12T09:42:03.709Z,3.60
2019-05-12T09:44:34.178Z,4.10
2019-05-12T09:47:05.021Z,3.72
2019-05-12T09:49:39.186Z,3.62
2019-05-12T09:52:06.752Z,3.95
2019-05-12T09:54:40.883Z,3.20
2019-05-12T09:57:07.847Z,3.45
2019-05-12T09:59:37.495Z,3.90
2019-05-12T10:02:10.555Z,3.85
2019-05-12T10:04:38.819Z,3.60
2019-05-12T10:07:08.706Z,4.08
2019-05-12T10:09:38.325Z,3.60
2019-05-12T10:12:08.036Z,3.62
2019-05-12T10:14:40.798Z,3.60
2019-05-12T10:17:09.235Z,3.47
2019-05-12T10:19:38.862Z,3.08
2019-05-12T10:22:08.577Z,3.42
2019-05-12T10:24:41.403Z,3.02
2019-05-12T10:27:09.589Z,3.72
2019-05-12T10:29:39.224Z,3.42
2019-05-12T10:32:10.457Z,3.00
2019-05-12T10:34:40.533Z,3.30
2019-05-12T10:37:10.167Z,3.58
2019-05-12T10:39:39.811Z,3.47
2019-05-12T10:42:09.444Z,2.98
2019-05-12T10:44:40.882Z,2.95
2019-05-12T10:47:10.581Z,3.05
2019-05-12T10:49:40.229Z,3.15
2019-05-12T10:52:09.853Z,3.00
2019-05-12T10:54:39.587Z,2.75
2019-05-12T10:57:09.283Z,3.33
2019-05-12T10:59:45.216Z,2.47
2019-05-12T11:02:10.297Z,3.60
2019-05-12T11:04:41.217Z,2.67
2019-05-12T11:07:13.441Z,2.85
2019-05-12T11:09:43.892Z,3.00
2019-05-12T11:12:13.937Z,2.60
2019-05-12T11:14:44.020Z,2.90
2019-05-12T11:17:14.271Z,2.92
2019-05-12T11:19:47.087Z,2.62
2019-05-12T11:22:15.422Z,2.98
2019-05-12T11:24:45.186Z,2.60
2019-05-12T11:27:15.000Z,3.02
2019-05-12T11:29:48.690Z,3.45
2019-05-12T11:32:17.739Z,2.77
2019-05-12T11:34:47.710Z,2.40
2019-05-12T11:37:17.330Z,2.33
2019-05-12T11:39:47.659Z,2.92
2019-05-12T11:42:17.491Z,3.20
2019-05-12T11:44:47.211Z,2.90
2019-05-12T11:47:23.821Z,2.77
2019-05-12T11:49:48.368Z,2.50
2019-05-12T11:52:19.404Z,3.00
2019-05-12T11:54:51.243Z,2.52
2019-05-12T11:57:28.237Z,2.90
2019-05-12T12:00:02.243Z,3.33
2019-05-12T12:02:28.841Z,3.37
2019-05-12T12:04:56.534Z,2.80
2019-05-12T12:07:26.251Z,3.05
2019-05-12T12:09:59.259Z,3.20
2019-05-12T12:12:27.423Z,3.50
2019-05-12T12:14:57.032Z,3.37
2019-05-12T12:17:30.916Z,3.12
2019-05-12T12:19:58.119Z,2.83
2019-05-12T12:22:29.772Z,2.80
2019-05-12T12:25:03.106Z,3.27
2019-05-12T12:27:30.670Z,3.22
2019-05-12T12:30:15.333Z,2.85
2019-05-12T12:32:33.807Z,2.60
2019-05-12T12:35:07.353Z,2.77
2019-05-12T12:37:35.568Z,2.65
2019-05-12T12:40:06.647Z,2.35
2019-05-12T12:42:43.685Z,2.42
2019-05-12T12:45:16.246Z,2.80
2019-05-12T12:47:49.221Z,2.50
2019-05-12T12:50:20.210Z,2.47
2019-05-12T12:52:49.032Z,2.42
2019-05-12T12:55:18.882Z,2.85
2019-05-12T12:57:50.732Z,3.25
2019-05-12T13:00:29.730Z,2.80
2019-05-12T13:02:53.281Z,3.05
2019-05-12T13:05:23.989Z,2.42
2019-05-12T13:07:53.706Z,2.62
2019-05-12T13:10:24.776Z,3.20
2019-05-12T13:12:56.554Z,3.45
2019-05-12T13:15:26.120Z,2.85
2019-05-12T13:17:55.787Z,2.72
2019-05-12T13:20:25.491Z,2.77
2019-05-12T13:22:55.108Z,3.27
2019-05-12T13:25:24.825Z,2.95
2019-05-12T13:27:54.457Z,3.25
2019-05-12T13:30:24.425Z,2.92
2019-05-12T13:32:54.169Z,3.10
2019-05-12T13:35:24.096Z,2.83
2019-05-12T13:37:56.361Z,2.85
2019-05-12T13:40:29.779Z,2.60
2019-05-12T13:42:58.436Z,2.72
2019-05-12T13:45:28.600Z,2.52
2019-05-12T13:47:58.323Z,2.70
2019-05-12T13:50:28.034Z,2.27
2019-05-12T13:53:01.058Z,2.20
2019-05-12T13:55:30.650Z,2.10
2019-05-12T13:58:00.299Z,1.80
2019-05-12T14:00:29.941Z,1.70
2019-05-12T14:03:08.181Z,1.62
2019-05-12T14:08:03.926Z,1.87
2019-05-12T14:10:37.365Z,1.92
2019-05-12T14:13:04.984Z,1.72
2019-05-12T14:15:35.114Z,2.22
2019-05-12T14:18:04.883Z,1.70
2019-05-12T14:20:34.606Z,1.52
2019-05-12T14:23:04.313Z,1.60
2019-05-12T14:25:34.999Z,1.65
2019-05-12T14:28:08.081Z,1.30
2019-05-12T14:30:36.167Z,1.37
2019-05-12T14:33:05.935Z,1.42
2019-05-12T14:35:40.821Z,1.62
2019-05-12T14:38:06.925Z,1.57
2019-05-12T14:40:36.597Z,1.40
2019-05-12T14:43:10.421Z,1.30
2019-05-12T14:45:37.647Z,1.57
2019-05-12T14:48:09.194Z,1.15
2019-05-12T14:50:38.794Z,1.02
2019-05-12T14:53:08.506Z,1.25
2019-05-12T14:55:38.138Z,1.10
2019-05-12T14:58:09.195Z,1.25
2019-05-12T15:00:39.330Z,1.15
2019-05-12T15:03:13.814Z,1.20
2019-05-12T15:05:47.008Z,1.47
2019-05-12T15:08:14.227Z,1.30
2019-05-12T15:10:44.668Z,1.30
2019-05-12T15:13:14.381Z,1.17
2019-05-12T15:15:44.165Z,1.30
2019-05-12T15:18:16.056Z,1.00
2019-05-12T15:20:49.905Z,0.90
2019-05-12T15:23:16.586Z,1.25
2019-05-12T15:25:46.207Z,1.02
2019-05-12T15:28:15.895Z,0.98
2019-05-12T15:30:45.549Z,1.35
2019-05-12T15:33:15.301Z,1.10
2019-05-12T15:35:44.981Z,1.10
2019-05-12T15:38:16.723Z,0.90
2019-05-12T15:40:46.518Z,1.05
2019-05-12T15:43:16.160Z,1.07
2019-05-12T15:45:49.006Z,1.37
2019-05-12T15:48:18.608Z,1.00
2019-05-12T15:50:48.359Z,1.07
2019-05-12T15:53:22.336Z,0.72
2019-05-12T15:55:50.137Z,0.80
2019-05-12T15:58:19.920Z,1.15
2019-05-12T16:00:49.548Z,0.82
2019-05-12T16:03:19.194Z,1.00
2019-05-12T16:05:48.893Z,1.05
2019-05-12T16:08:18.527Z,0.93
2019-05-12T16:10:48.161Z,1.07
2019-05-12T16:13:17.806Z,0.80
2019-05-12T16:15:49.322Z,0.80
2019-05-12T16:18:18.895Z,0.90
2019-05-12T16:20:48.511Z,1.45
2019-05-12T16:23:28.007Z,1.62
2019-05-12T16:25:49.573Z,1.47
2019-05-12T16:28:23.452Z,1.30
2019-05-12T16:30:50.639Z,1.00
2019-05-12T16:33:22.102Z,1.00
2019-05-12T16:35:54.390Z,0.70
2019-05-12T16:38:23.623Z,0.95
2019-05-12T16:40:53.889Z,0.88
2019-05-12T16:43:23.982Z,0.70
2019-05-12T16:45:53.888Z,0.60
2019-05-12T16:48:30.366Z,0.80
2019-05-12T16:50:55.103Z,0.70
2019-05-12T16:53:27.839Z,0.98
2019-05-12T16:55:56.080Z,0.82
2019-05-12T16:58:33.407Z,1.00
2019-05-12T17:00:57.078Z,0.80
2019-05-12T17:03:26.728Z,1.00
2019-05-12T17:05:57.906Z,0.72
2019-05-12T17:08:27.747Z,0.80
2019-05-12T17:11:15.121Z,0.80
2019-05-12T17:13:28.840Z,0.90
2019-05-12T17:16:00.155Z,0.90
2019-05-12T17:18:30.110Z,0.82
2019-05-12T17:20:59.817Z,0.88
2019-05-12T17:23:29.503Z,0.60
2019-05-12T17:25:59.155Z,0.85
2019-05-12T17:28:28.783Z,0.98
2019-05-12T17:30:58.433Z,0.90
2019-05-12T17:33:28.126Z,0.93
2019-05-12T17:36:03.095Z,1.00
2019-05-12T17:38:30.196Z,1.00
2019-05-12T17:41:00.836Z,0.90
2019-05-12T17:43:30.674Z,0.80
2019-05-12T17:46:03.641Z,0.80
2019-05-12T17:48:31.752Z,0.78
2019-05-12T17:51:03.302Z,0.75
2019-05-12T17:53:36.065Z,1.00
2019-05-12T17:56:04.813Z,0.75
2019-05-12T17:58:36.116Z,0.80
2019-05-12T18:01:06.204Z,0.70
2019-05-12T18:03:39.360Z,0.90
2019-05-12T18:06:07.285Z,0.90
2019-05-12T18:08:38.768Z,0.80
2019-05-12T18:11:11.477Z,1.00
2019-05-12T18:13:40.152Z,1.10
2019-05-12T18:16:11.433Z,1.20
2019-05-12T18:18:43.414Z,0.90
2019-05-12T18:21:21.118Z,1.45
2019-05-12T18:23:44.205Z,1.80
2019-05-12T18:26:16.082Z,1.40
2019-05-12T18:28:45.339Z,1.00
2019-05-12T18:31:15.072Z,1.00
2019-05-12T18:33:52.114Z,2.27
2019-05-12T18:36:16.138Z,2.30
2019-05-12T18:38:45.843Z,1.82
2019-05-12T18:41:15.570Z,2.00
2019-05-12T18:43:45.551Z,2.75
2019-05-12T18:46:15.189Z,5.55
2019-05-12T18:48:44.830Z,4.42
2019-05-12T18:51:17.192Z,3.40
2019-05-12T18:53:45.896Z,2.37
2019-05-12T18:56:21.364Z,3.00
2019-05-12T18:58:46.943Z,2.60
2019-05-12T19:01:16.587Z,2.17
2019-05-12T19:03:50.705Z,1.52
2019-05-12T19:06:17.717Z,3.98
2019-05-12T19:08:47.548Z,5.12
2019-05-12T19:11:22.506Z,14.00
2019-05-12T19:13:51.763Z,21.80
2019-05-12T19:16:20.162Z,18.70
2019-05-12T19:18:49.785Z,28.92
2019-05-12T19:21:20.202Z,29.72
2019-05-12T19:23:50.052Z,26.55
2019-05-12T19:26:19.675Z,21.57
2019-05-12T19:28:52.841Z,18.42
2019-05-12T19:31:20.688Z,7.75
2019-05-12T19:34:10.335Z,3.87
2019-05-12T19:36:23.954Z,3.25
2019-05-12T19:38:54.539Z,2.83
2019-05-12T19:41:24.637Z,2.52
2019-05-12T19:43:54.540Z,3.58
2019-05-12T19:46:24.295Z,3.00
2019-05-12T19:48:54.153Z,3.85
2019-05-12T19:51:27.745Z,3.62
2019-05-12T19:53:55.299Z,2.72
2019-05-12T19:56:34.588Z,2.60
2019-05-12T19:58:56.277Z,2.00
2019-05-12T20:01:32.189Z,1.75
2019-05-12T20:03:58.098Z,1.80
2019-05-12T20:06:27.883Z,1.80
2019-05-12T20:09:06.146Z,1.45
2019-05-12T20:11:31.305Z,2.00
2019-05-12T20:14:00.228Z,2.02
2019-05-12T20:16:30.611Z,2.15
2019-05-12T20:19:00.388Z,2.60
2019-05-12T20:21:30.090Z,2.50
2019-05-12T20:23:59.735Z,2.00
2019-05-12T20:26:33.204Z,1.95
2019-05-12T20:29:00.815Z,1.62
2019-05-12T20:31:35.444Z,1.67
2019-05-12T20:34:10.745Z,1.72
2019-05-12T20:36:33.565Z,1.62
2019-05-12T20:39:10.111Z,1.70
2019-05-12T20:41:36.343Z,1.30
2019-05-12T20:44:09.810Z,1.40
2019-05-12T20:46:37.418Z,1.40
2019-05-12T20:49:11.857Z,1.35
2019-05-12T20:51:38.401Z,1.47
2019-05-12T20:54:16.107Z,1.98
2019-05-12T20:56:39.415Z,1.92
2019-05-12T20:59:13.860Z,2.00
2019-05-12T21:01:40.455Z,1.98
2019-05-12T21:04:10.145Z,1.35
2019-05-12T21:06:41.912Z,1.47
2019-05-12T21:09:11.137Z,1.27
2019-05-12T21:11:41.074Z,1.47
2019-05-12T21:14:12.295Z,1.75
2019-05-12T21:16:44.475Z,1.82
2019-05-12T21:19:14.323Z,1.40
2019-05-12T21:21:44.530Z,1.10
2019-05-12T21:24:14.426Z,1.35
2019-05-12T21:26:44.244Z,1.45
2019-05-12T21:29:14.085Z,1.25
2019-05-12T21:31:45.316Z,1.35
2019-05-12T21:34:21.284Z,1.20
2019-05-12T21:36:46.409Z,1.25
2019-05-12T21:39:16.102Z,1.27
2019-05-12T21:41:50.635Z,1.20
2019-05-12T21:44:17.190Z,1.35
2019-05-12T21:46:57.456Z,1.30
2019-05-12T21:49:18.225Z,1.65
2019-05-12T21:51:50.469Z,1.20
2019-05-12T21:54:19.231Z,1.40
2019-05-12T21:56:49.535Z,1.50
2019-05-12T21:59:19.240Z,1.15
2019-05-12T22:01:49.117Z,1.52
2019-05-12T22:04:18.877Z,1.62
2019-05-12T22:06:51.248Z,1.40
2019-05-12T22:09:20.000Z,1.30
2019-05-12T22:11:50.986Z,1.57
2019-05-12T22:14:21.059Z,1.47
2019-05-12T22:16:52.495Z,1.20
2019-05-12T22:19:22.118Z,1.10
2019-05-12T22:21:53.661Z,1.20
2019-05-12T22:24:27.610Z,1.45
2019-05-12T22:26:54.553Z,1.52
2019-05-12T22:29:29.647Z,1.10
2019-05-12T22:31:55.740Z,1.20
2019-05-12T22:34:27.473Z,1.12
2019-05-12T22:36:59.197Z,1.10
2019-05-12T22:39:32.808Z,1.32
2019-05-12T22:41:59.680Z,1.10
2019-05-12T22:44:29.331Z,1.10
2019-05-12T22:47:04.268Z,1.07
2019-05-12T22:49:30.343Z,1.00
2019-05-12T22:52:02.865Z,1.47
2019-05-12T22:54:33.564Z,1.30
2019-05-12T22:57:04.026Z,1.27
2019-05-12T22:59:40.330Z,1.40
2019-05-12T23:02:05.561Z,0.90
2019-05-12T23:04:40.018Z,1.17
2019-05-12T23:07:06.700Z,1.10
2019-05-12T23:09:36.329Z,1.20
2019-05-12T23:12:09.733Z,1.10
2019-05-12T23:14:37.470Z,1.17
2019-05-12T23:17:07.566Z,0.90
2019-05-12T23:19:42.996Z,1.20
2019-05-12T23:22:08.658Z,1.20
2019-05-12T23:24:40.734Z,1.27
2019-05-12T23:27:09.795Z,1.00
2019-05-12T23:29:39.523Z,1.00
2019-05-12T23:32:12.029Z,1.30
2019-05-12T23:34:45.065Z,1.10
2019-05-12T23:37:14.015Z,1.10
2019-05-12T23:39:44.245Z,1.12
2019-05-12T23:42:14.056Z,1.10
2019-05-12T23:44:44.320Z,1.20
2019-05-12T23:47:14.025Z,1.40
2019-05-12T23:49:44.479Z,1.10
2019-05-12T23:52:14.258Z,1.10
2019-05-12T23:54:44.510Z,1.30
2019-05-12T23:57:15.748Z,1.15
2019-05-12T23:59:45.655Z,0.85
